Jean Marie River, Canada
Current Conditions -  °F | °C
As of 5:00 PM on Saturday 25 Oct 2014 (Local Time) from CYFS Reporting Station
Scattered Clouds Scattered Clouds  
Wind Chill: 17°   Ceiling: Unl
Heat Index: 23°   Visibility: 15mi
Dew Point: 18°   Wind: 5mph
Humidity: 80%   Direction: 320°NW
Pressure: 29.94"   Gusts: NA
Location:  61.52°N, 120.63°W
Report Text: CYFS 252300Z 32004KT 15SM SCT090 M05/M08 A2994 RMK AC3 SLP152
Loading
Personal Weather Stations






























Interactive Weather Map
Tropical Storm Tracking
New forecast layout! Learn more

10-Day Weather Forecast

Advertisements
Track Severe Weather on mobile